Time;durP1;ratioP1;P1;durP2;ratioP2;P2;SDS_P1;SDS_P2;PMS_P1;PMS_P2;Temp;Humidity;BMP_temperature;BMP_pressure;BME280_temperature;BME280_humidity;BME280_pressure;Samples;Min_cycle;Max_cycle;Signal;HPM_P1;HPM_P2
2022/06/26 00:01:54;;;;;;;9.93;7.45;;;20.20;99.90;;;;;;5047887;28;20935;-84
2022/06/26 00:04:20;;;;;;;11.05;7.72;;;20.20;99.90;;;;;;5051676;28;20155;-83
2022/06/26 00:06:46;;;;;;;10.57;7.93;;;20.20;99.90;;;;;;5052082;28;20501;-83
2022/06/26 00:09:14;;;;;;;11.63;7.88;;;20.20;99.90;;;;;;5052769;28;20041;-83
2022/06/26 00:11:40;;;;;;;10.02;8.23;;;20.10;99.90;;;;;;5052431;28;20044;-84
2022/06/26 00:14:05;;;;;;;10.50;7.70;;;20.10;99.90;;;;;;5035724;28;20123;-84
2022/06/26 00:16:31;;;;;;;12.85;8.88;;;20.10;99.90;;;;;;5036568;28;20036;-84
2022/06/26 00:18:56;;;;;;;11.60;7.82;;;20.00;99.90;;;;;;5051951;28;20036;-84
2022/06/26 00:21:22;;;;;;;9.70;7.53;;;20.00;99.90;;;;;;5034209;28;20040;-84
2022/06/26 00:23:48;;;;;;;11.27;7.47;;;20.10;99.90;;;;;;5069225;28;20513;-84
2022/06/26 00:26:14;;;;;;;10.65;7.70;;;20.00;99.90;;;;;;5044265;28;20040;-84
2022/06/26 00:28:39;;;;;;;10.73;7.82;;;20.00;99.90;;;;;;5052783;28;20514;-84
2022/06/26 00:31:05;;;;;;;10.10;7.72;;;20.00;99.90;;;;;;5052469;28;20201;-84
2022/06/26 00:33:30;;;;;;;12.43;9.20;;;19.90;99.90;;;;;;5051542;28;20048;-83
2022/06/26 00:35:56;;;;;;;10.48;7.68;;;19.90;99.90;;;;;;5053241;28;20052;-83
2022/06/26 00:38:22;;;;;;;10.43;7.90;;;19.90;99.90;;;;;;5036660;28;20513;-84
2022/06/26 00:40:47;;;;;;;11.45;8.50;;;19.90;99.90;;;;;;5033931;28;20047;-84
2022/06/26 00:43:13;;;;;;;10.75;8.93;;;19.90;99.90;;;;;;5051842;28;20032;-84
2022/06/26 00:45:38;;;;;;;12.00;8.80;;;19.90;99.90;;;;;;5052118;28;20028;-84
2022/06/26 00:48:04;;;;;;;10.77;8.23;;;19.90;99.90;;;;;;5052557;28;20086;-84
2022/06/26 00:50:30;;;;;;;10.50;8.32;;;19.90;99.90;;;;;;5050105;28;20040;-83
2022/06/26 00:52:56;;;;;;;11.60;9.25;;;19.80;99.90;;;;;;5048403;28;20045;-84
2022/06/26 00:55:23;;;;;;;9.95;8.65;;;19.80;99.90;;;;;;5048809;28;20525;-84
2022/06/26 00:57:49;;;;;;;12.98;9.15;;;19.80;99.90;;;;;;5048728;28;20068;-83
2022/06/26 01:00:15;;;;;;;10.10;8.13;;;19.80;99.90;;;;;;5048762;28;20041;-84
2022/06/26 01:02:41;;;;;;;11.20;10.07;;;19.70;99.90;;;;;;5031258;28;20075;-83
2022/06/26 01:05:09;;;;;;;11.95;9.25;;;19.60;99.90;;;;;;5046400;28;20064;-83
2022/06/26 01:07:35;;;;;;;11.23;9.13;;;19.50;99.90;;;;;;5052087;28;20517;-83
2022/06/26 01:10:02;;;;;;;11.20;9.02;;;19.50;99.90;;;;;;5038224;28;20070;-84
2022/06/26 01:12:28;;;;;;;11.90;10.70;;;19.50;99.90;;;;;;5038770;28;20044;-83
2022/06/26 01:14:54;;;;;;;13.38;11.55;;;19.40;99.90;;;;;;5038868;28;20044;-84
2022/06/26 01:17:20;;;;;;;13.32;10.50;;;19.40;99.90;;;;;;5055967;28;20071;-83
2022/06/26 01:19:46;;;;;;;13.32;10.18;;;19.40;99.90;;;;;;5055486;28;20486;-83
2022/06/26 01:22:12;;;;;;;13.48;10.27;;;19.30;99.90;;;;;;5054392;28;20552;-83
2022/06/26 01:24:37;;;;;;;14.23;11.43;;;19.10;99.90;;;;;;5039114;28;20123;-83
2022/06/26 01:27:03;;;;;;;13.10;11.68;;;19.00;99.90;;;;;;5039391;28;20550;-83
2022/06/26 01:29:29;;;;;;;13.48;11.82;;;19.00;99.90;;;;;;5054621;28;20056;-83
2022/06/26 01:31:54;;;;;;;15.85;12.38;;;19.00;99.90;;;;;;5055191;28;20044;-83
2022/06/26 01:34:20;;;;;;;15.05;12.85;;;19.20;99.90;;;;;;5054915;28;20033;-83
2022/06/26 01:36:46;;;;;;;14.70;13.20;;;19.30;99.90;;;;;;5055680;28;20082;-83
2022/06/26 01:39:11;;;;;;;15.77;13.68;;;19.40;99.90;;;;;;5054635;28;20068;-84
2022/06/26 01:41:37;;;;;;;14.80;13.30;;;19.40;99.90;;;;;;5054851;28;20041;-84
2022/06/26 01:44:07;;;;;;;17.10;14.05;;;19.40;99.90;;;;;;5055180;28;20044;-84
2022/06/26 01:46:34;;;;;;;17.58;14.60;;;19.40;99.90;;;;;;5054522;28;20041;-84
2022/06/26 01:48:59;;;;;;;15.90;14.25;;;19.40;99.90;;;;;;5038632;28;20047;-83
2022/06/26 01:51:25;;;;;;;16.33;14.60;;;19.40;99.90;;;;;;5054789;28;20385;-83
2022/06/26 01:53:51;;;;;;;15.80;14.13;;;19.40;99.90;;;;;;5037436;28;20036;-84
2022/06/26 01:56:16;;;;;;;17.05;14.57;;;19.50;99.90;;;;;;5055617;28;20596;-84
2022/06/26 01:58:43;;;;;;;16.65;14.95;;;19.40;99.90;;;;;;5055210;28;20076;-84
2022/06/26 02:01:09;;;;;;;17.48;15.20;;;19.40;99.90;;;;;;5054156;28;20040;-84
2022/06/26 02:03:35;;;;;;;19.42;15.82;;;19.50;99.90;;;;;;5037269;28;20032;-84
2022/06/26 02:06:00;;;;;;;18.70;16.65;;;19.40;99.90;;;;;;5055029;28;20075;-84
2022/06/26 02:08:26;;;;;;;19.83;17.92;;;19.40;99.90;;;;;;5054596;28;20519;-83
2022/06/26 02:13:36;;;;;;;20.55;18.35;;;19.30;99.90;;;;;;5054180;28;20044;-83
2022/06/26 02:16:15;;;;;;;20.20;18.20;;;19.40;99.90;;;;;;5050653;28;20033;-84
2022/06/26 02:18:43;;;;;;;18.23;16.30;;;19.40;99.90;;;;;;5035141;28;20041;-84
2022/06/26 02:21:11;;;;;;;20.88;18.48;;;19.40;99.90;;;;;;5052827;28;20040;-84
2022/06/26 02:23:38;;;;;;;21.55;19.27;;;19.40;99.90;;;;;;5037355;28;20596;-84
2022/06/26 02:26:05;;;;;;;20.13;17.65;;;19.30;99.90;;;;;;5054617;28;20383;-84
2022/06/26 02:28:31;;;;;;;19.17;17.27;;;19.40;99.90;;;;;;5037601;28;20406;-83
2022/06/26 02:30:57;;;;;;;21.50;19.25;;;19.40;99.90;;;;;;5054240;28;20045;-83
2022/06/26 02:33:23;;;;;;;20.23;18.20;;;19.30;99.90;;;;;;5053727;28;20036;-83
2022/06/26 02:35:50;;;;;;;20.60;18.52;;;19.40;99.90;;;;;;5037317;28;20051;-83
2022/06/26 02:38:16;;;;;;;19.67;17.80;;;19.40;99.90;;;;;;5054602;28;20036;-83
2022/06/26 02:40:43;;;;;;;19.45;17.55;;;19.40;99.90;;;;;;5036759;28;20123;-84
2022/06/26 02:43:09;;;;;;;20.60;18.60;;;19.40;99.90;;;;;;5053254;28;20044;-84
2022/06/26 02:45:35;;;;;;;20.40;18.27;;;19.30;99.90;;;;;;5053853;28;20047;-83
2022/06/26 02:48:00;;;;;;;19.52;17.60;;;19.30;99.90;;;;;;5053652;28;20032;-84
2022/06/26 02:50:26;;;;;;;18.23;16.33;;;19.30;99.90;;;;;;5037627;28;20036;-83
2022/06/26 02:52:52;;;;;;;18.63;16.67;;;19.30;99.90;;;;;;5036234;28;20044;-83
2022/06/26 02:55:18;;;;;;;19.25;17.45;;;19.30;99.90;;;;;;5054032;28;20573;-84
2022/06/26 02:57:44;;;;;;;16.90;15.20;;;19.20;99.90;;;;;;5037964;28;20032;-83
2022/06/26 03:00:12;;;;;;;16.67;14.98;;;19.30;99.90;;;;;;5052641;28;20520;-84
2022/06/26 03:02:38;;;;;;;16.73;15.05;;;19.30;99.90;;;;;;5053370;28;20041;-83
2022/06/26 03:05:04;;;;;;;18.48;15.95;;;19.20;99.90;;;;;;5036361;28;20169;-84
2022/06/26 03:07:30;;;;;;;14.40;12.82;;;19.20;99.90;;;;;;5053787;28;20406;-83
2022/06/26 03:09:55;;;;;;;15.32;12.85;;;19.20;99.90;;;;;;5053195;28;20047;-84
2022/06/26 03:12:21;;;;;;;14.98;12.63;;;19.10;99.90;;;;;;5053109;28;20038;-84
2022/06/26 03:14:47;;;;;;;14.60;12.43;;;19.00;99.90;;;;;;5053053;28;20076;-84
2022/06/26 03:17:12;;;;;;;14.15;12.45;;;18.90;99.90;;;;;;5053442;28;20028;-84
2022/06/26 03:19:38;;;;;;;14.73;11.50;;;18.90;99.90;;;;;;5052676;28;20045;-84
2022/06/26 03:22:04;;;;;;;12.98;11.57;;;18.90;99.90;;;;;;5035883;28;20386;-84
2022/06/26 03:24:30;;;;;;;14.50;11.25;;;18.80;99.90;;;;;;5052511;28;20040;-83
2022/06/26 03:26:55;;;;;;;14.02;11.13;;;18.80;99.90;;;;;;5037069;28;20124;-84
2022/06/26 03:29:21;;;;;;;13.95;10.80;;;18.70;99.90;;;;;;5053058;28;20039;-84
2022/06/26 03:31:46;;;;;;;13.48;11.73;;;18.60;99.90;;;;;;5053287;28;20442;-84
2022/06/26 03:34:12;;;;;;;12.95;10.45;;;18.60;99.90;;;;;;5036150;28;20043;-84
2022/06/26 03:36:37;;;;;;;14.23;11.23;;;18.60;99.90;;;;;;5052693;28;20064;-83
2022/06/26 03:39:04;;;;;;;13.68;10.32;;;18.50;99.90;;;;;;5036713;28;20058;-83
2022/06/26 03:41:29;;;;;;;13.40;10.52;;;18.50;99.90;;;;;;5052463;28;20041;-84
2022/06/26 03:43:55;;;;;;;14.10;10.70;;;18.50;99.90;;;;;;5050783;28;20079;-84
2022/06/26 03:46:21;;;;;;;12.85;11.35;;;18.50;99.90;;;;;;5036823;28;20127;-83
2022/06/26 03:48:46;;;;;;;13.57;10.65;;;18.50;99.90;;;;;;5052633;28;20037;-84
2022/06/26 03:51:12;;;;;;;13.73;10.05;;;18.50;99.90;;;;;;5035917;28;20070;-83
2022/06/26 03:53:38;;;;;;;13.13;9.52;;;18.50;99.90;;;;;;5052567;28;20045;-84
2022/06/26 03:56:04;;;;;;;16.08;10.07;;;18.40;99.90;;;;;;5052466;28;20087;-83
2022/06/26 03:58:30;;;;;;;10.63;8.68;;;18.40;99.90;;;;;;5052997;28;20051;-83
2022/06/26 04:00:56;;;;;;;12.65;10.00;;;18.40;99.90;;;;;;5051573;28;20043;-84
2022/06/26 04:03:22;;;;;;;12.90;9.27;;;18.40;99.90;;;;;;5052271;28;20049;-83
2022/06/26 04:05:48;;;;;;;13.27;9.05;;;18.30;99.90;;;;;;5052411;28;20032;-83
2022/06/26 04:08:14;;;;;;;12.77;9.57;;;18.30;99.90;;;;;;5052535;28;20505;-84
2022/06/26 04:10:40;;;;;;;10.75;8.40;;;18.20;99.90;;;;;;5052685;28;20540;-83
2022/06/26 04:13:09;;;;;;;12.60;8.38;;;18.20;99.90;;;;;;5035100;28;20051;-84
2022/06/26 04:15:36;;;;;;;11.30;8.18;;;18.10;99.90;;;;;;5035662;28;20086;-83
2022/06/26 04:18:03;;;;;;;10.85;7.38;;;18.10;99.90;;;;;;5052344;28;20048;-83
2022/06/26 04:20:29;;;;;;;10.52;7.57;;;18.10;99.90;;;;;;5035695;28;20070;-83
2022/06/26 04:23:00;;;;;;;11.20;7.70;;;18.00;99.90;;;;;;5051508;28;20063;-83
2022/06/26 04:25:28;;;;;;;11.02;8.02;;;17.90;99.90;;;;;;5044128;28;20119;-83
2022/06/26 04:27:54;;;;;;;9.93;8.00;;;17.90;99.90;;;;;;5052774;28;20226;-83
2022/06/26 04:30:19;;;;;;;11.43;7.95;;;17.80;99.90;;;;;;5035026;28;20043;-83
2022/06/26 04:32:45;;;;;;;12.68;9.18;;;17.80;99.90;;;;;;5052059;28;20041;-83
2022/06/26 04:35:12;;;;;;;13.32;9.68;;;17.90;99.90;;;;;;5049983;28;20032;-83
2022/06/26 04:37:40;;;;;;;12.82;9.52;;;17.90;99.90;;;;;;5033993;28;20032;-84
2022/06/26 04:40:08;;;;;;;12.32;8.73;;;17.90;99.90;;;;;;5034103;28;20041;-83
2022/06/26 04:42:34;;;;;;;11.75;8.20;;;17.90;99.90;;;;;;5051096;28;20040;-83
2022/06/26 04:45:00;;;;;;;10.30;7.55;;;17.90;99.90;;;;;;5054252;28;20066;-83
2022/06/26 04:47:25;;;;;;;10.82;7.18;;;17.90;99.90;;;;;;5038851;28;20633;-84
2022/06/26 04:49:51;;;;;;;10.60;7.00;;;17.90;99.90;;;;;;5054398;28;20086;-83
2022/06/26 04:52:16;;;;;;;9.23;6.93;;;17.90;99.90;;;;;;5055700;28;20041;-83
2022/06/26 04:54:43;;;;;;;9.90;6.75;;;17.90;99.90;;;;;;5054606;28;20090;-84
2022/06/26 04:57:09;;;;;;;11.90;7.40;;;17.90;99.90;;;;;;5038354;28;20044;-84
2022/06/26 04:59:35;;;;;;;11.32;7.50;;;17.90;99.90;;;;;;5054962;28;20037;-83
2022/06/26 05:02:01;;;;;;;9.70;7.53;;;17.90;99.90;;;;;;5054247;28;20031;-84
2022/06/26 05:04:27;;;;;;;13.68;7.97;;;17.90;99.90;;;;;;5038675;28;20619;-83
2022/06/26 05:06:52;;;;;;;10.23;7.03;;;18.00;99.90;;;;;;5054440;28;20058;-84
2022/06/26 05:09:18;;;;;;;11.43;6.80;;;18.00;99.90;;;;;;5055040;28;20086;-83
2022/06/26 05:11:44;;;;;;;10.98;6.65;;;18.10;99.90;;;;;;5051982;28;20493;-83
2022/06/26 05:14:10;;;;;;;9.90;6.60;;;18.10;99.90;;;;;;5043742;28;20115;-84
2022/06/26 05:16:35;;;;;;;8.88;6.72;;;18.20;99.90;;;;;;5044396;28;20120;-83
2022/06/26 05:19:02;;;;;;;9.02;6.32;;;18.20;99.90;;;;;;5055629;28;20489;-83
2022/06/26 05:21:28;;;;;;;8.82;5.95;;;18.30;99.90;;;;;;5054100;28;20521;-83
2022/06/26 05:23:53;;;;;;;8.57;5.55;;;18.30;99.90;;;;;;5054706;28;20044;-84
2022/06/26 05:26:19;;;;;;;8.95;5.97;;;18.40;99.90;;;;;;5053973;28;20044;-84
2022/06/26 05:28:45;;;;;;;9.07;6.30;;;18.40;99.90;;;;;;5038263;28;20033;-84
2022/06/26 05:31:10;;;;;;;9.63;6.28;;;18.50;99.90;;;;;;5037247;28;20036;-83
2022/06/26 05:33:36;;;;;;;8.20;6.10;;;18.50;99.90;;;;;;5054353;28;20076;-84
2022/06/26 05:36:02;;;;;;;8.90;6.10;;;18.40;99.90;;;;;;5054002;28;20047;-84
2022/06/26 05:38:27;;;;;;;10.30;7.43;;;18.40;99.90;;;;;;5038518;28;20438;-84
2022/06/26 05:40:53;;;;;;;10.63;8.50;;;18.40;99.90;;;;;;5072344;28;20131;-84
2022/06/26 05:43:18;;;;;;;10.55;9.02;;;18.40;99.90;;;;;;5037521;28;20394;-83
2022/06/26 05:45:44;;;;;;;12.75;11.25;;;18.40;99.90;;;;;;5054171;28;20513;-83
2022/06/26 05:48:10;;;;;;;13.98;12.23;;;18.40;99.90;;;;;;5054973;28;20033;-83
2022/06/26 05:50:35;;;;;;;14.20;12.15;;;18.40;99.90;;;;;;5037336;28;20120;-83
2022/06/26 05:53:01;;;;;;;14.15;12.55;;;18.40;99.90;;;;;;5038174;28;20037;-83
2022/06/26 05:55:26;;;;;;;14.07;12.43;;;18.50;99.90;;;;;;5051413;28;20519;-84
2022/06/26 05:57:52;;;;;;;14.90;13.38;;;18.40;99.90;;;;;;5037596;28;20557;-83
2022/06/26 06:00:18;;;;;;;15.25;13.60;;;18.50;99.90;;;;;;5054457;28;20036;-84
2022/06/26 06:02:44;;;;;;;16.33;14.63;;;18.40;99.90;;;;;;5053678;28;20040;-83
2022/06/26 06:05:10;;;;;;;16.27;14.57;;;18.50;99.90;;;;;;5053604;28;20032;-84
2022/06/26 06:07:36;;;;;;;15.73;14.07;;;18.60;99.90;;;;;;5053826;28;20039;-83
2022/06/26 06:10:06;;;;;;;16.90;15.20;;;18.60;99.90;;;;;;5037301;28;20416;-83
2022/06/26 06:12:32;;;;;;;16.50;14.90;;;18.60;99.90;;;;;;5053697;28;20047;-83
2022/06/26 06:14:58;;;;;;;17.38;15.70;;;18.70;99.90;;;;;;5036535;28;20036;-83
2022/06/26 06:17:35;;;;;;;17.30;15.57;;;18.60;99.90;;;;;;5037539;28;20131;-84
2022/06/26 06:20:06;;;;;;;18.17;16.38;;;18.60;99.90;;;;;;5035877;28;20051;-84
2022/06/26 06:22:32;;;;;;;18.27;16.40;;;18.70;99.90;;;;;;5054219;28;20097;-84
2022/06/26 06:24:58;;;;;;;18.65;16.92;;;18.70;99.90;;;;;;5036692;28;20502;-84
2022/06/26 06:27:23;;;;;;;19.15;17.17;;;18.70;99.90;;;;;;5071122;28;20039;-84
2022/06/26 06:29:49;;;;;;;18.80;16.80;;;18.70;99.90;;;;;;5054392;28;20044;-83
2022/06/26 06:32:14;;;;;;;18.00;16.23;;;18.60;99.90;;;;;;5071209;28;20606;-83
2022/06/26 06:34:40;;;;;;;18.80;17.00;;;18.60;99.90;;;;;;5052905;28;20037;-83
2022/06/26 06:37:06;;;;;;;18.15;16.35;;;18.60;99.90;;;;;;5052611;28;20033;-83
2022/06/26 06:39:32;;;;;;;17.73;15.93;;;18.60;99.90;;;;;;5053964;28;20040;-84
2022/06/26 06:41:57;;;;;;;18.63;16.73;;;18.60;99.90;;;;;;5056304;28;20042;-84
2022/06/26 06:44:23;;;;;;;17.60;15.82;;;18.70;99.90;;;;;;5046023;28;20032;-84
2022/06/26 06:46:49;;;;;;;16.42;14.82;;;18.70;99.90;;;;;;5070886;28;20035;-84
2022/06/26 06:49:15;;;;;;;17.27;15.57;;;18.70;99.90;;;;;;5063883;28;20123;-84
2022/06/26 06:51:40;;;;;;;17.42;15.63;;;18.60;99.90;;;;;;5051617;28;20135;-84
2022/06/26 06:54:06;;;;;;;16.25;14.65;;;18.70;99.90;;;;;;5052979;28;20033;-84
2022/06/26 06:56:32;;;;;;;16.83;15.13;;;18.70;99.90;;;;;;5052050;28;20048;-84
2022/06/26 06:58:57;;;;;;;17.77;16.00;;;18.80;99.90;;;;;;5053417;28;20037;-84
2022/06/26 07:01:23;;;;;;;18.05;16.35;;;18.80;99.90;;;;;;5052663;28;20045;-84
2022/06/26 07:03:49;;;;;;;17.85;16.05;;;18.80;99.90;;;;;;5046654;28;20928;-83
2022/06/26 07:06:14;;;;;;;17.80;16.00;;;18.80;99.90;;;;;;5047335;28;20449;-83
2022/06/26 07:08:40;;;;;;;21.58;18.80;;;18.80;99.90;;;;;;5053461;28;20131;-84
2022/06/26 07:11:05;;;;;;;20.25;18.15;;;18.90;99.90;;;;;;5052202;28;20049;-83
2022/06/26 07:13:31;;;;;;;19.65;17.70;;;19.00;99.90;;;;;;5053215;28;20461;-83
2022/06/26 07:15:56;;;;;;;20.50;17.67;;;19.00;99.90;;;;;;5052054;28;20052;-84
2022/06/26 07:18:24;;;;;;;18.75;16.90;;;19.00;99.90;;;;;;5052975;28;20550;-83
2022/06/26 07:20:52;;;;;;;18.65;16.77;;;19.00;99.90;;;;;;5052419;28;20094;-84
2022/06/26 07:23:18;;;;;;;18.23;16.42;;;19.00;99.90;;;;;;5052926;28;20205;-84
2022/06/26 07:25:43;;;;;;;19.80;18.00;;;18.90;99.90;;;;;;5051654;28;20174;-83
2022/06/26 07:28:09;;;;;;;21.52;19.27;;;18.90;99.90;;;;;;5035759;28;20067;-84
2022/06/26 07:30:35;;;;;;;17.95;16.23;;;19.00;99.90;;;;;;5036331;28;20048;-84
2022/06/26 07:35:52;;;;;;;17.52;15.82;;;19.10;99.90;;;;;;5051761;28;20045;-83
2022/06/26 07:38:18;;;;;;;18.13;16.35;;;19.10;99.90;;;;;;5052284;28;20532;-84
2022/06/26 07:40:44;;;;;;;19.67;17.77;;;19.10;99.90;;;;;;5051924;28;20066;-84
2022/06/26 07:43:09;;;;;;;19.40;17.70;;;19.10;99.90;;;;;;5050846;28;20028;-84
2022/06/26 07:45:35;;;;;;;18.67;16.88;;;19.20;99.90;;;;;;5051633;28;20102;-84
2022/06/26 07:48:01;;;;;;;19.55;17.73;;;19.10;99.90;;;;;;5052875;28;20028;-84
2022/06/26 07:50:28;;;;;;;20.73;18.83;;;19.30;99.90;;;;;;5052586;28;20047;-83
2022/06/26 07:52:54;;;;;;;17.23;15.60;;;19.30;99.90;;;;;;5036167;28;20119;-84
2022/06/26 07:55:19;;;;;;;19.15;17.35;;;19.30;99.90;;;;;;5054965;28;20143;-84
2022/06/26 07:57:45;;;;;;;20.17;18.27;;;19.30;99.90;;;;;;5061763;28;20067;-84
2022/06/26 08:00:11;;;;;;;20.65;18.65;;;19.30;99.90;;;;;;5063865;28;20668;-85
2022/06/26 08:02:36;;;;;;;21.50;19.40;;;19.40;99.90;;;;;;5060524;28;20149;-85
2022/06/26 08:05:02;;;;;;;20.73;18.83;;;19.50;99.90;;;;;;5052587;28;20047;-84
2022/06/26 08:07:28;;;;;;;18.42;16.63;;;19.50;99.90;;;;;;5043395;28;20062;-84
2022/06/26 08:09:53;;;;;;;19.55;17.65;;;19.40;99.90;;;;;;5052357;28;20097;-85
2022/06/26 08:12:19;;;;;;;19.67;17.55;;;19.40;99.90;;;;;;5052646;28;20047;-84
2022/06/26 08:14:44;;;;;;;15.80;14.20;;;19.50;99.90;;;;;;5051977;28;20479;-84
2022/06/26 08:17:10;;;;;;;16.48;14.80;;;19.40;99.90;;;;;;5051701;28;20094;-84
2022/06/26 08:19:35;;;;;;;16.77;15.07;;;19.40;99.90;;;;;;5051523;28;20043;-84
2022/06/26 08:22:01;;;;;;;15.80;14.25;;;19.40;99.90;;;;;;5052080;28;20033;-85
2022/06/26 08:24:27;;;;;;;16.17;14.55;;;19.50;99.90;;;;;;5036136;28;20676;-84
2022/06/26 08:26:54;;;;;;;13.90;12.50;;;19.50;99.90;;;;;;5048264;28;20036;-85
2022/06/26 08:29:20;;;;;;;12.32;11.02;;;19.60;99.90;;;;;;5052378;28;20477;-85
2022/06/26 08:31:45;;;;;;;13.73;12.32;;;19.70;99.90;;;;;;5051697;28;20045;-85
2022/06/26 08:34:11;;;;;;;13.30;11.68;;;19.70;99.90;;;;;;5035858;28;20409;-84
2022/06/26 08:36:38;;;;;;;14.38;12.52;;;19.80;99.90;;;;;;5051484;28;20044;-85
2022/06/26 08:39:05;;;;;;;13.07;11.80;;;19.90;99.90;;;;;;5051242;28;20093;-83
2022/06/26 08:41:40;;;;;;;12.07;10.25;;;20.00;99.90;;;;;;5052109;28;20037;-84
2022/06/26 08:44:06;;;;;;;10.80;8.95;;;20.00;99.90;;;;;;5057093;28;20430;-85
2022/06/26 08:46:36;;;;;;;11.90;10.32;;;20.00;99.90;;;;;;5063712;28;20032;-85
2022/06/26 08:49:15;;;;;;;9.90;7.03;;;20.10;99.90;;;;;;5071411;28;20161;-85
2022/06/26 08:51:46;;;;;;;9.23;6.95;;;20.20;99.90;;;;;;5044140;28;20407;-85
2022/06/26 08:54:13;;;;;;;9.45;6.68;;;20.10;99.90;;;;;;5052336;28;20059;-85
2022/06/26 08:56:42;;;;;;;10.57;8.25;;;20.10;99.90;;;;;;5050385;28;20068;-85
2022/06/26 08:59:08;;;;;;;9.95;7.82;;;20.30;99.90;;;;;;5032237;28;20066;-85
2022/06/26 09:01:35;;;;;;;11.75;9.38;;;20.40;99.90;;;;;;5032989;28;20125;-85
2022/06/26 09:04:01;;;;;;;13.23;7.45;;;20.30;99.90;;;;;;5042163;28;20032;-85
2022/06/26 09:06:26;;;;;;;9.98;7.20;;;20.30;99.90;;;;;;5059313;28;20175;-85
2022/06/26 09:08:52;;;;;;;10.30;7.32;;;20.40;99.90;;;;;;5057038;28;20556;-85
2022/06/26 09:11:18;;;;;;;9.00;5.85;;;20.40;99.90;;;;;;5061477;28;20120;-85
2022/06/26 09:13:45;;;;;;;9.95;5.38;;;20.50;99.90;;;;;;5079075;28;20089;-85
2022/06/26 09:16:12;;;;;;;7.47;4.68;;;20.50;99.90;;;;;;5042092;28;20424;-85
2022/06/26 09:18:40;;;;;;;9.75;5.70;;;20.50;99.90;;;;;;5060923;28;20038;-85
2022/06/26 09:21:08;;;;;;;8.35;5.22;;;20.50;99.90;;;;;;5041685;28;20047;-85
2022/06/26 09:23:35;;;;;;;8.60;6.10;;;20.70;99.90;;;;;;5057933;28;20041;-85
2022/06/26 09:26:02;;;;;;;9.20;5.85;;;20.70;99.90;;;;;;5058792;28;20032;-85
2022/06/26 09:28:28;;;;;;;7.70;3.95;;;20.80;99.90;;;;;;5057861;28;20032;-85
2022/06/26 09:30:59;;;;;;;10.32;5.80;;;20.90;99.90;;;;;;5054374;28;20051;-85
2022/06/26 09:33:27;;;;;;;7.82;5.05;;;20.90;99.90;;;;;;5038273;28;20041;-85
2022/06/26 09:35:54;;;;;;;8.13;5.22;;;20.90;99.90;;;;;;5037877;28;20040;-85
2022/06/26 09:38:25;;;;;;;8.98;4.25;;;20.90;99.90;;;;;;5053644;28;20505;-85
2022/06/26 09:41:02;;;;;;;11.05;5.53;;;21.00;99.90;;;;;;5054526;28;20042;-85
2022/06/26 09:43:32;;;;;;;9.77;5.47;;;21.00;99.90;;;;;;5054474;28;20549;-85
2022/06/26 09:46:00;;;;;;;10.73;6.07;;;21.00;99.90;;;;;;5054132;28;20036;-85
2022/06/26 09:48:26;;;;;;;9.57;6.60;;;21.10;99.90;;;;;;5053534;28;20401;-85
2022/06/26 09:50:53;;;;;;;9.23;5.78;;;21.20;99.90;;;;;;5054745;28;20051;-85
2022/06/26 09:53:20;;;;;;;9.25;6.00;;;21.20;99.90;;;;;;5054486;28;20078;-85
2022/06/26 09:55:47;;;;;;;10.25;6.20;;;21.20;99.90;;;;;;5054243;28;20049;-85
2022/06/26 09:58:13;;;;;;;10.68;6.22;;;21.20;99.90;;;;;;5054667;28;20044;-85
2022/06/26 10:00:39;;;;;;;10.45;4.70;;;21.20;99.90;;;;;;5037389;28;20041;-84
2022/06/26 10:08:41;;;;;;;9.10;5.53;;;21.30;99.90;;;;;;5053875;28;20083;-85
2022/06/26 10:11:07;;;;;;;9.10;4.72;;;21.30;99.90;;;;;;5053884;28;20032;-85
2022/06/26 10:13:36;;;;;;;7.97;4.03;;;21.30;99.90;;;;;;5054396;28;20032;-85
2022/06/26 10:16:08;;;;;;;9.18;4.07;;;21.40;99.90;;;;;;5053144;28;20044;-85
2022/06/26 10:18:49;;;;;;;8.55;4.38;;;21.30;99.90;;;;;;5052769;28;20041;-85
2022/06/26 10:21:15;;;;;;;9.82;4.35;;;21.30;99.90;;;;;;5054488;28;20049;-85
2022/06/26 10:23:42;;;;;;;7.55;3.80;;;21.30;99.90;;;;;;5053792;28;20093;-85
2022/06/26 10:26:16;;;;;;;10.13;5.10;;;21.30;99.90;;;;;;5044742;28;20072;-85
2022/06/26 10:29:02;;;;;;;8.50;4.25;;;21.40;99.90;;;;;;5053888;28;20375;-84
2022/06/26 10:31:48;;;;;;;8.80;3.90;;;21.40;99.90;;;;;;5053391;28;20068;-84
2022/06/26 10:34:19;;;;;;;8.95;4.63;;;21.50;99.90;;;;;;5054364;28;20079;-84
2022/06/26 10:37:04;;;;;;;8.55;4.55;;;21.50;99.90;;;;;;5036405;28;20040;-84
2022/06/26 10:39:39;;;;;;;8.95;4.70;;;21.50;99.90;;;;;;5047595;28;20051;-85
2022/06/26 10:45:16;;;;;;;;;;;21.50;99.90;;;;;;5053014;28;20044;-85
2022/06/26 10:47:49;;;;;;;8.63;3.30;;;21.50;99.90;;;;;;5035958;28;19983;-85
2022/06/26 10:50:22;;;;;;;7.43;3.10;;;21.50;99.90;;;;;;5053084;28;20115;-85
2022/06/26 10:52:48;;;;;;;7.45;3.17;;;21.50;99.90;;;;;;5037151;28;20406;-84
2022/06/26 10:55:14;;;;;;;7.13;3.20;;;21.50;99.90;;;;;;5061729;28;20551;-85
2022/06/26 10:57:39;;;;;;;9.65;3.38;;;21.60;99.90;;;;;;5035374;28;20037;-84
2022/06/26 11:00:08;;;;;;;8.55;4.18;;;21.60;99.90;;;;;;5053772;28;20144;-85
2022/06/26 11:02:39;;;;;;;8.32;3.63;;;21.70;99.90;;;;;;5054331;28;20505;-85
2022/06/26 11:05:07;;;;;;;7.60;3.30;;;21.70;99.90;;;;;;5036348;28;20070;-85
2022/06/26 11:07:48;;;;;;;8.90;3.75;;;21.80;99.90;;;;;;5036597;28;20047;-85
2022/06/26 11:10:15;;;;;;;8.25;4.05;;;21.80;99.90;;;;;;5052972;28;20086;-85
2022/06/26 11:12:43;;;;;;;9.75;3.85;;;21.80;99.90;;;;;;5054010;28;20529;-85
2022/06/26 11:15:32;;;;;;;9.50;4.03;;;21.90;99.90;;;;;;5037133;28;20055;-85
2022/06/26 11:18:01;;;;;;;9.13;3.50;;;22.00;99.90;;;;;;5034060;28;20053;-85
2022/06/26 11:20:54;;;;;;;8.48;3.65;;;22.00;99.90;;;;;;5052635;28;20040;-85
2022/06/26 11:23:28;;;;;;;9.65;3.30;;;22.10;99.90;;;;;;5035881;28;20060;-85
2022/06/26 11:26:09;;;;;;;7.65;3.75;;;22.10;99.90;;;;;;5053004;28;20650;-85
2022/06/26 11:28:38;;;;;;;9.50;3.90;;;22.10;99.90;;;;;;5036075;28;20180;-85
2022/06/26 11:31:07;;;;;;;9.38;3.92;;;22.10;99.90;;;;;;5036220;28;20402;-85
2022/06/26 11:33:35;;;;;;;7.38;3.03;;;22.30;99.90;;;;;;5053119;28;20041;-85
2022/06/26 11:36:03;;;;;;;8.80;3.20;;;22.30;99.90;;;;;;5035595;28;20044;-85
2022/06/26 11:38:30;;;;;;;9.98;3.20;;;22.50;99.90;;;;;;5052010;28;20052;-85
2022/06/26 11:41:01;;;;;;;7.15;3.05;;;22.50;99.40;;;;;;5051484;28;20452;-84
2022/06/26 11:43:28;;;;;;;10.73;3.63;;;22.60;99.90;;;;;;5053266;28;20633;-85
2022/06/26 11:45:54;;;;;;;8.80;3.40;;;22.60;98.90;;;;;;5052299;28;20486;-85
2022/06/26 11:48:20;;;;;;;8.73;3.50;;;22.60;98.60;;;;;;5051335;28;20055;-85
2022/06/26 11:50:50;;;;;;;9.27;3.40;;;22.70;99.90;;;;;;5052462;28;20048;-85
2022/06/26 11:53:21;;;;;;;6.82;3.08;;;22.80;98.90;;;;;;5034610;28;20032;-85
2022/06/26 11:55:50;;;;;;;7.53;3.13;;;22.80;99.90;;;;;;5052568;28;20041;-85
2022/06/26 11:58:17;;;;;;;11.18;3.35;;;22.90;98.90;;;;;;5051829;28;20045;-85
2022/06/26 12:00:46;;;;;;;9.00;3.60;;;22.90;98.30;;;;;;5033854;28;20390;-85
2022/06/26 12:03:13;;;;;;;8.63;3.88;;;23.00;99.70;;;;;;5052810;28;20043;-85
2022/06/26 12:05:41;;;;;;;10.73;4.03;;;23.00;99.80;;;;;;5051771;28;20044;-85
2022/06/26 12:08:18;;;;;;;8.65;3.60;;;23.10;98.60;;;;;;5051301;28;20090;-85
2022/06/26 12:10:50;;;;;;;7.95;2.90;;;23.10;97.90;;;;;;5035742;28;20048;-85
2022/06/26 12:13:31;;;;;;;8.95;3.17;;;23.00;95.90;;;;;;5052271;28;20066;-85
2022/06/26 12:16:04;;;;;;;8.10;3.28;;;22.90;98.00;;;;;;5054810;28;20120;-85
2022/06/26 12:18:30;;;;;;;8.63;3.35;;;22.80;97.90;;;;;;5051044;28;20029;-85
2022/06/26 12:20:56;;;;;;;6.82;2.90;;;22.70;97.90;;;;;;5051491;28;20041;-85
2022/06/26 12:23:34;;;;;;;9.00;3.90;;;22.80;95.60;;;;;;5035381;28;20378;-85
2022/06/26 12:26:08;;;;;;;9.77;3.33;;;22.80;95.70;;;;;;5042977;28;20067;-85
2022/06/26 12:28:50;;;;;;;6.75;3.15;;;22.80;96.60;;;;;;5052065;28;20405;-85
2022/06/26 12:31:18;;;;;;;8.40;2.95;;;22.80;97.50;;;;;;5050987;28;20517;-85
2022/06/26 12:33:45;;;;;;;8.30;3.22;;;22.70;98.50;;;;;;5052672;28;20570;-85
2022/06/26 12:36:11;;;;;;;7.22;3.00;;;22.60;97.80;;;;;;5052194;28;20040;-85
2022/06/26 12:38:37;;;;;;;10.02;3.33;;;22.50;96.90;;;;;;5033895;28;20083;-85
2022/06/26 12:41:05;;;;;;;9.70;3.60;;;22.50;99.20;;;;;;5051506;28;20047;-85
2022/06/26 12:43:31;;;;;;;8.80;3.78;;;22.50;99.90;;;;;;5052234;28;20047;-85
2022/06/26 12:45:57;;;;;;;9.77;3.30;;;22.50;97.70;;;;;;5051433;28;20032;-85
2022/06/26 12:48:22;;;;;;;8.60;3.10;;;22.40;99.60;;;;;;5051752;28;20090;-85
2022/06/26 12:50:48;;;;;;;10.27;3.60;;;22.40;99.50;;;;;;5051171;28;20501;-84